sensor_id;sensor_type;location;lat;lon;timestamp;P1;durP1;ratioP1;P2;durP2;ratioP2
13832;SDS011;6987;19.472;-99.276;2023-08-17T00:01:49;4.82;;;1.63;;
13832;SDS011;6987;19.472;-99.276;2023-08-17T00:04:18;2.05;;;1.88;;
13832;SDS011;6987;19.472;-99.276;2023-08-17T00:06:46;2.03;;;1.90;;
13832;SDS011;6987;19.472;-99.276;2023-08-17T00:09:17;4.40;;;1.95;;
13832;SDS011;6987;19.472;-99.276;2023-08-17T00:11:46;2.90;;;2.08;;
13832;SDS011;6987;19.472;-99.276;2023-08-17T00:14:15;1.98;;;1.88;;
13832;SDS011;6987;19.472;-99.276;2023-08-17T00:16:44;3.90;;;2.17;;
13832;SDS011;6987;19.472;-99.276;2023-08-17T00:19:13;2.40;;;2.20;;
13832;SDS011;6987;19.472;-99.276;2023-08-17T00:21:42;2.33;;;2.22;;
13832;SDS011;6987;19.472;-99.276;2023-08-17T00:24:11;2.55;;;2.03;;
13832;SDS011;6987;19.472;-99.276;2023-08-17T00:26:42;3.00;;;2.08;;
13832;SDS011;6987;19.472;-99.276;2023-08-17T00:29:11;3.92;;;2.78;;
13832;SDS011;6987;19.472;-99.276;2023-08-17T00:31:40;4.72;;;2.28;;
13832;SDS011;6987;19.472;-99.276;2023-08-17T00:34:10;7.15;;;2.33;;
13832;SDS011;6987;19.472;-99.276;2023-08-17T00:36:38;2.58;;;2.38;;
13832;SDS011;6987;19.472;-99.276;2023-08-17T00:39:08;3.85;;;3.40;;
13832;SDS011;6987;19.472;-99.276;2023-08-17T00:41:36;2.60;;;2.40;;
13832;SDS011;6987;19.472;-99.276;2023-08-17T00:44:07;2.47;;;2.28;;
13832;SDS011;6987;19.472;-99.276;2023-08-17T00:46:36;5.05;;;2.35;;
13832;SDS011;6987;19.472;-99.276;2023-08-17T00:49:06;3.28;;;2.30;;
13832;SDS011;6987;19.472;-99.276;2023-08-17T00:51:35;2.70;;;2.50;;
13832;SDS011;6987;19.472;-99.276;2023-08-17T00:54:05;3.47;;;3.10;;
13832;SDS011;6987;19.472;-99.276;2023-08-17T00:56:34;7.90;;;4.70;;
13832;SDS011;6987;19.472;-99.276;2023-08-17T00:59:04;4.10;;;3.38;;
13832;SDS011;6987;19.472;-99.276;2023-08-17T01:01:35;3.75;;;3.50;;
13832;SDS011;6987;19.472;-99.276;2023-08-17T01:04:04;3.35;;;3.15;;
13832;SDS011;6987;19.472;-99.276;2023-08-17T01:06:34;3.10;;;2.85;;
13832;SDS011;6987;19.472;-99.276;2023-08-17T01:09:03;3.25;;;3.00;;
13832;SDS011;6987;19.472;-99.276;2023-08-17T01:11:32;2.95;;;2.75;;
13832;SDS011;6987;19.472;-99.276;2023-08-17T01:14:04;3.45;;;3.15;;
13832;SDS011;6987;19.472;-99.276;2023-08-17T01:16:37;3.30;;;2.80;;
13832;SDS011;6987;19.472;-99.276;2023-08-17T01:19:08;2.50;;;2.30;;
13832;SDS011;6987;19.472;-99.276;2023-08-17T01:21:38;3.28;;;2.40;;
13832;SDS011;6987;19.472;-99.276;2023-08-17T01:24:12;2.80;;;2.60;;
13832;SDS011;6987;19.472;-99.276;2023-08-17T01:26:41;3.08;;;2.50;;
13832;SDS011;6987;19.472;-99.276;2023-08-17T01:29:10;4.80;;;2.30;;
13832;SDS011;6987;19.472;-99.276;2023-08-17T01:31:42;4.05;;;2.20;;
13832;SDS011;6987;19.472;-99.276;2023-08-17T01:34:14;3.13;;;2.47;;
13832;SDS011;6987;19.472;-99.276;2023-08-17T01:36:46;3.53;;;2.92;;
13832;SDS011;6987;19.472;-99.276;2023-08-17T01:39:18;6.13;;;2.80;;
13832;SDS011;6987;19.472;-99.276;2023-08-17T01:41:49;5.53;;;3.38;;
13832;SDS011;6987;19.472;-99.276;2023-08-17T01:44:19;3.50;;;2.92;;
13832;SDS011;6987;19.472;-99.276;2023-08-17T01:46:49;2.97;;;2.78;;
13832;SDS011;6987;19.472;-99.276;2023-08-17T01:49:19;3.53;;;3.08;;
13832;SDS011;6987;19.472;-99.276;2023-08-17T01:51:48;3.42;;;3.13;;
13832;SDS011;6987;19.472;-99.276;2023-08-17T01:54:19;3.10;;;2.85;;
13832;SDS011;6987;19.472;-99.276;2023-08-17T01:56:48;4.35;;;2.80;;
13832;SDS011;6987;19.472;-99.276;2023-08-17T01:59:17;3.67;;;3.38;;
13832;SDS011;6987;19.472;-99.276;2023-08-17T02:01:46;4.97;;;3.10;;
13832;SDS011;6987;19.472;-99.276;2023-08-17T02:04:16;6.63;;;3.67;;
13832;SDS011;6987;19.472;-99.276;2023-08-17T02:06:45;3.67;;;3.20;;
13832;SDS011;6987;19.472;-99.276;2023-08-17T02:09:14;3.83;;;3.63;;
13832;SDS011;6987;19.472;-99.276;2023-08-17T02:11:45;5.75;;;3.83;;
13832;SDS011;6987;19.472;-99.276;2023-08-17T02:14:14;5.03;;;3.50;;
13832;SDS011;6987;19.472;-99.276;2023-08-17T02:16:43;5.53;;;3.35;;
13832;SDS011;6987;19.472;-99.276;2023-08-17T02:19:12;3.80;;;3.45;;
13832;SDS011;6987;19.472;-99.276;2023-08-17T02:21:41;3.70;;;3.50;;
13832;SDS011;6987;19.472;-99.276;2023-08-17T02:24:11;5.30;;;3.95;;
13832;SDS011;6987;19.472;-99.276;2023-08-17T02:26:40;5.05;;;3.50;;
13832;SDS011;6987;19.472;-99.276;2023-08-17T02:29:11;3.67;;;3.47;;
13832;SDS011;6987;19.472;-99.276;2023-08-17T02:31:39;4.53;;;3.25;;
13832;SDS011;6987;19.472;-99.276;2023-08-17T02:34:09;3.97;;;3.08;;
13832;SDS011;6987;19.472;-99.276;2023-08-17T02:36:38;3.63;;;3.33;;
13832;SDS011;6987;19.472;-99.276;2023-08-17T02:39:07;3.40;;;3.10;;
13832;SDS011;6987;19.472;-99.276;2023-08-17T02:41:36;3.83;;;3.33;;
13832;SDS011;6987;19.472;-99.276;2023-08-17T02:44:05;4.03;;;3.10;;
13832;SDS011;6987;19.472;-99.276;2023-08-17T02:46:38;4.70;;;3.80;;
13832;SDS011;6987;19.472;-99.276;2023-08-17T02:49:07;4.43;;;3.63;;
13832;SDS011;6987;19.472;-99.276;2023-08-17T02:51:36;3.72;;;3.33;;
13832;SDS011;6987;19.472;-99.276;2023-08-17T02:54:05;3.70;;;3.20;;
13832;SDS011;6987;19.472;-99.276;2023-08-17T02:56:34;4.10;;;3.03;;
13832;SDS011;6987;19.472;-99.276;2023-08-17T02:59:03;3.60;;;3.40;;
13832;SDS011;6987;19.472;-99.276;2023-08-17T03:01:32;4.22;;;3.33;;
13832;SDS011;6987;19.472;-99.276;2023-08-17T03:04:03;5.25;;;3.33;;
13832;SDS011;6987;19.472;-99.276;2023-08-17T03:06:32;3.70;;;3.40;;
13832;SDS011;6987;19.472;-99.276;2023-08-17T03:09:01;3.60;;;2.92;;
13832;SDS011;6987;19.472;-99.276;2023-08-17T03:11:30;3.30;;;3.10;;
13832;SDS011;6987;19.472;-99.276;2023-08-17T03:13:59;3.58;;;2.95;;
13832;SDS011;6987;19.472;-99.276;2023-08-17T03:16:28;3.13;;;2.92;;
13832;SDS011;6987;19.472;-99.276;2023-08-17T03:18:57;3.55;;;3.22;;
13832;SDS011;6987;19.472;-99.276;2023-08-17T03:21:28;3.80;;;3.03;;
13832;SDS011;6987;19.472;-99.276;2023-08-17T03:23:57;3.28;;;2.90;;
13832;SDS011;6987;19.472;-99.276;2023-08-17T03:26:26;3.13;;;2.90;;
13832;SDS011;6987;19.472;-99.276;2023-08-17T03:28:55;2.80;;;2.60;;
13832;SDS011;6987;19.472;-99.276;2023-08-17T03:31:24;3.30;;;3.00;;
13832;SDS011;6987;19.472;-99.276;2023-08-17T03:33:53;3.35;;;3.15;;
13832;SDS011;6987;19.472;-99.276;2023-08-17T03:36:23;3.15;;;3.03;;
13832;SDS011;6987;19.472;-99.276;2023-08-17T03:38:53;3.00;;;2.80;;
13832;SDS011;6987;19.472;-99.276;2023-08-17T03:41:22;4.50;;;3.67;;
13832;SDS011;6987;19.472;-99.276;2023-08-17T03:43:51;3.55;;;3.25;;
13832;SDS011;6987;19.472;-99.276;2023-08-17T03:46:20;3.20;;;2.88;;
13832;SDS011;6987;19.472;-99.276;2023-08-17T03:48:49;4.05;;;3.08;;
13832;SDS011;6987;19.472;-99.276;2023-08-17T03:51:18;3.22;;;3.03;;
13832;SDS011;6987;19.472;-99.276;2023-08-17T03:53:47;3.60;;;3.30;;
13832;SDS011;6987;19.472;-99.276;2023-08-17T03:56:18;4.68;;;3.50;;
13832;SDS011;6987;19.472;-99.276;2023-08-17T03:58:46;3.65;;;3.35;;
13832;SDS011;6987;19.472;-99.276;2023-08-17T04:01:15;3.90;;;3.40;;
13832;SDS011;6987;19.472;-99.276;2023-08-17T04:03:44;3.55;;;3.22;;
13832;SDS011;6987;19.472;-99.276;2023-08-17T04:06:13;3.20;;;3.03;;
13832;SDS011;6987;19.472;-99.276;2023-08-17T04:08:42;3.65;;;3.35;;
13832;SDS011;6987;19.472;-99.276;2023-08-17T04:11:11;4.60;;;3.58;;
13832;SDS011;6987;19.472;-99.276;2023-08-17T04:13:42;3.42;;;3.22;;
13832;SDS011;6987;19.472;-99.276;2023-08-17T04:16:11;3.72;;;3.33;;
13832;SDS011;6987;19.472;-99.276;2023-08-17T04:18:39;4.05;;;3.65;;
13832;SDS011;6987;19.472;-99.276;2023-08-17T04:21:08;3.30;;;3.10;;
13832;SDS011;6987;19.472;-99.276;2023-08-17T04:23:37;4.43;;;3.55;;
13832;SDS011;6987;19.472;-99.276;2023-08-17T04:26:06;4.53;;;4.03;;
13832;SDS011;6987;19.472;-99.276;2023-08-17T04:28:36;5.22;;;4.82;;
13832;SDS011;6987;19.472;-99.276;2023-08-17T04:31:06;4.25;;;3.95;;
13832;SDS011;6987;19.472;-99.276;2023-08-17T04:33:35;5.40;;;4.88;;
13832;SDS011;6987;19.472;-99.276;2023-08-17T04:36:04;4.50;;;3.60;;
13832;SDS011;6987;19.472;-99.276;2023-08-17T04:38:33;3.22;;;3.08;;
13832;SDS011;6987;19.472;-99.276;2023-08-17T04:41:02;4.30;;;3.75;;
13832;SDS011;6987;19.472;-99.276;2023-08-17T04:43:31;3.50;;;3.20;;
13832;SDS011;6987;19.472;-99.276;2023-08-17T04:46:00;3.60;;;3.30;;
13832;SDS011;6987;19.472;-99.276;2023-08-17T04:48:31;5.82;;;3.58;;
13832;SDS011;6987;19.472;-99.276;2023-08-17T04:51:03;3.63;;;2.83;;
13832;SDS011;6987;19.472;-99.276;2023-08-17T04:53:32;3.03;;;2.83;;
13832;SDS011;6987;19.472;-99.276;2023-08-17T04:56:02;3.45;;;2.83;;
13832;SDS011;6987;19.472;-99.276;2023-08-17T04:58:31;5.45;;;3.30;;
13832;SDS011;6987;19.472;-99.276;2023-08-17T05:01:00;3.45;;;3.15;;
13832;SDS011;6987;19.472;-99.276;2023-08-17T05:03:31;4.57;;;3.17;;
13832;SDS011;6987;19.472;-99.276;2023-08-17T05:06:01;5.43;;;4.00;;
13832;SDS011;6987;19.472;-99.276;2023-08-17T05:08:31;4.15;;;3.75;;
13832;SDS011;6987;19.472;-99.276;2023-08-17T05:11:00;5.10;;;3.90;;
13832;SDS011;6987;19.472;-99.276;2023-08-17T05:13:29;4.03;;;3.70;;
13832;SDS011;6987;19.472;-99.276;2023-08-17T05:15:58;5.65;;;4.03;;
13832;SDS011;6987;19.472;-99.276;2023-08-17T05:18:27;5.90;;;5.35;;
13832;SDS011;6987;19.472;-99.276;2023-08-17T05:20:58;5.57;;;5.18;;
13832;SDS011;6987;19.472;-99.276;2023-08-17T05:23:27;7.10;;;3.67;;
13832;SDS011;6987;19.472;-99.276;2023-08-17T05:25:56;5.45;;;4.63;;
13832;SDS011;6987;19.472;-99.276;2023-08-17T05:28:26;5.18;;;4.78;;
13832;SDS011;6987;19.472;-99.276;2023-08-17T05:30:55;4.88;;;4.30;;
13832;SDS011;6987;19.472;-99.276;2023-08-17T05:33:24;5.75;;;4.93;;
13832;SDS011;6987;19.472;-99.276;2023-08-17T05:35:53;5.80;;;5.30;;
13832;SDS011;6987;19.472;-99.276;2023-08-17T05:38:24;5.60;;;5.10;;
13832;SDS011;6987;19.472;-99.276;2023-08-17T05:40:57;6.63;;;5.53;;
13832;SDS011;6987;19.472;-99.276;2023-08-17T05:43:25;6.68;;;5.07;;
13832;SDS011;6987;19.472;-99.276;2023-08-17T05:45:56;7.70;;;5.13;;
13832;SDS011;6987;19.472;-99.276;2023-08-17T05:48:26;5.55;;;4.57;;
13832;SDS011;6987;19.472;-99.276;2023-08-17T05:50:55;4.80;;;4.38;;
13832;SDS011;6987;19.472;-99.276;2023-08-17T05:53:26;5.40;;;4.90;;
13832;SDS011;6987;19.472;-99.276;2023-08-17T05:55:54;5.63;;;5.13;;
13832;SDS011;6987;19.472;-99.276;2023-08-17T05:58:24;5.47;;;5.03;;
13832;SDS011;6987;19.472;-99.276;2023-08-17T06:00:53;5.13;;;4.72;;
13832;SDS011;6987;19.472;-99.276;2023-08-17T06:03:22;5.18;;;4.65;;
13832;SDS011;6987;19.472;-99.276;2023-08-17T06:05:52;4.72;;;4.43;;
13832;SDS011;6987;19.472;-99.276;2023-08-17T06:08:21;5.38;;;4.88;;
13832;SDS011;6987;19.472;-99.276;2023-08-17T06:10:51;5.50;;;5.00;;
13832;SDS011;6987;19.472;-99.276;2023-08-17T06:13:21;5.28;;;4.78;;
13832;SDS011;6987;19.472;-99.276;2023-08-17T06:15:50;8.43;;;4.60;;
13832;SDS011;6987;19.472;-99.276;2023-08-17T06:18:19;5.35;;;4.78;;
13832;SDS011;6987;19.472;-99.276;2023-08-17T06:20:49;5.85;;;5.35;;
13832;SDS011;6987;19.472;-99.276;2023-08-17T06:23:19;5.75;;;5.22;;
13832;SDS011;6987;19.472;-99.276;2023-08-17T06:25:48;5.65;;;5.15;;
13832;SDS011;6987;19.472;-99.276;2023-08-17T06:28:19;5.00;;;4.60;;
13832;SDS011;6987;19.472;-99.276;2023-08-17T06:30:51;4.88;;;4.47;;
13832;SDS011;6987;19.472;-99.276;2023-08-17T06:33:21;4.80;;;4.32;;
13832;SDS011;6987;19.472;-99.276;2023-08-17T06:35:50;5.30;;;4.90;;
13832;SDS011;6987;19.472;-99.276;2023-08-17T06:38:19;4.70;;;4.40;;
13832;SDS011;6987;19.472;-99.276;2023-08-17T06:40:48;5.10;;;4.70;;
13832;SDS011;6987;19.472;-99.276;2023-08-17T06:43:19;5.32;;;4.93;;
13832;SDS011;6987;19.472;-99.276;2023-08-17T06:45:48;4.85;;;4.55;;
13832;SDS011;6987;19.472;-99.276;2023-08-17T06:48:17;6.07;;;5.07;;
13832;SDS011;6987;19.472;-99.276;2023-08-17T06:50:46;5.57;;;5.13;;
13832;SDS011;6987;19.472;-99.276;2023-08-17T06:53:15;5.03;;;4.47;;
13832;SDS011;6987;19.472;-99.276;2023-08-17T06:55:44;4.72;;;4.50;;
13832;SDS011;6987;19.472;-99.276;2023-08-17T06:58:13;4.38;;;4.07;;
13832;SDS011;6987;19.472;-99.276;2023-08-17T07:00:44;4.20;;;3.90;;
13832;SDS011;6987;19.472;-99.276;2023-08-17T07:03:13;6.68;;;4.38;;
13832;SDS011;6987;19.472;-99.276;2023-08-17T07:05:42;5.47;;;4.07;;
13832;SDS011;6987;19.472;-99.276;2023-08-17T07:08:11;4.22;;;3.83;;
13832;SDS011;6987;19.472;-99.276;2023-08-17T07:10:41;4.53;;;4.15;;
13832;SDS011;6987;19.472;-99.276;2023-08-17T07:13:10;4.65;;;4.20;;
13832;SDS011;6987;19.472;-99.276;2023-08-17T07:15:39;4.97;;;4.28;;
13832;SDS011;6987;19.472;-99.276;2023-08-17T07:18:09;4.28;;;3.97;;
13832;SDS011;6987;19.472;-99.276;2023-08-17T07:20:38;4.15;;;3.72;;
13832;SDS011;6987;19.472;-99.276;2023-08-17T07:23:07;5.38;;;3.47;;
13832;SDS011;6987;19.472;-99.276;2023-08-17T07:25:36;4.70;;;4.10;;
13832;SDS011;6987;19.472;-99.276;2023-08-17T07:28:06;7.90;;;3.97;;
13832;SDS011;6987;19.472;-99.276;2023-08-17T07:30:35;4.03;;;3.80;;
13832;SDS011;6987;19.472;-99.276;2023-08-17T07:33:04;3.80;;;3.50;;
13832;SDS011;6987;19.472;-99.276;2023-08-17T07:35:35;3.75;;;3.55;;
13832;SDS011;6987;19.472;-99.276;2023-08-17T07:38:04;4.28;;;3.88;;
13832;SDS011;6987;19.472;-99.276;2023-08-17T07:40:33;4.05;;;3.78;;
13832;SDS011;6987;19.472;-99.276;2023-08-17T07:43:02;4.47;;;4.10;;
13832;SDS011;6987;19.472;-99.276;2023-08-17T07:45:31;4.10;;;3.88;;
13832;SDS011;6987;19.472;-99.276;2023-08-17T07:48:00;5.45;;;3.70;;
13832;SDS011;6987;19.472;-99.276;2023-08-17T07:50:29;4.15;;;3.90;;
13832;SDS011;6987;19.472;-99.276;2023-08-17T07:52:59;4.28;;;3.80;;
13832;SDS011;6987;19.472;-99.276;2023-08-17T07:55:28;5.38;;;3.60;;
13832;SDS011;6987;19.472;-99.276;2023-08-17T07:57:57;4.00;;;3.65;;
13832;SDS011;6987;19.472;-99.276;2023-08-17T08:00:25;3.90;;;3.60;;
13832;SDS011;6987;19.472;-99.276;2023-08-17T08:02:54;3.97;;;3.67;;
13832;SDS011;6987;19.472;-99.276;2023-08-17T08:05:23;4.22;;;3.80;;
13832;SDS011;6987;19.472;-99.276;2023-08-17T08:07:52;4.07;;;3.78;;
13832;SDS011;6987;19.472;-99.276;2023-08-17T08:10:23;3.83;;;3.63;;
13832;SDS011;6987;19.472;-99.276;2023-08-17T08:12:52;3.72;;;3.53;;
13832;SDS011;6987;19.472;-99.276;2023-08-17T08:15:20;3.97;;;3.55;;
13832;SDS011;6987;19.472;-99.276;2023-08-17T08:17:49;4.22;;;3.60;;
13832;SDS011;6987;19.472;-99.276;2023-08-17T08:20:19;3.60;;;3.30;;
13832;SDS011;6987;19.472;-99.276;2023-08-17T08:22:48;5.13;;;4.00;;
13832;SDS011;6987;19.472;-99.276;2023-08-17T08:25:17;3.67;;;3.40;;
13832;SDS011;6987;19.472;-99.276;2023-08-17T08:27:47;4.18;;;3.78;;
13832;SDS011;6987;19.472;-99.276;2023-08-17T08:30:16;3.63;;;3.33;;
13832;SDS011;6987;19.472;-99.276;2023-08-17T08:32:45;4.65;;;4.00;;
13832;SDS011;6987;19.472;-99.276;2023-08-17T08:35:15;4.18;;;3.88;;
13832;SDS011;6987;19.472;-99.276;2023-08-17T08:37:44;3.90;;;3.60;;
13832;SDS011;6987;19.472;-99.276;2023-08-17T08:40:13;3.60;;;3.40;;
13832;SDS011;6987;19.472;-99.276;2023-08-17T08:42:43;4.53;;;3.70;;
13832;SDS011;6987;19.472;-99.276;2023-08-17T08:45:14;3.75;;;3.45;;
13832;SDS011;6987;19.472;-99.276;2023-08-17T08:47:43;4.20;;;3.80;;
13832;SDS011;6987;19.472;-99.276;2023-08-17T08:50:14;3.40;;;3.05;;
13832;SDS011;6987;19.472;-99.276;2023-08-17T08:52:44;3.35;;;3.15;;
13832;SDS011;6987;19.472;-99.276;2023-08-17T08:55:17;3.40;;;3.20;;
13832;SDS011;6987;19.472;-99.276;2023-08-17T08:57:46;3.90;;;3.28;;
13832;SDS011;6987;19.472;-99.276;2023-08-17T09:00:17;3.38;;;3.17;;
13832;SDS011;6987;19.472;-99.276;2023-08-17T09:02:49;6.10;;;3.03;;
13832;SDS011;6987;19.472;-99.276;2023-08-17T09:05:18;3.35;;;3.15;;
13832;SDS011;6987;19.472;-99.276;2023-08-17T09:07:49;3.42;;;3.15;;
13832;SDS011;6987;19.472;-99.276;2023-08-17T09:10:17;3.40;;;3.10;;
13832;SDS011;6987;19.472;-99.276;2023-08-17T09:12:47;3.15;;;2.95;;
13832;SDS011;6987;19.472;-99.276;2023-08-17T09:15:18;3.25;;;2.95;;
13832;SDS011;6987;19.472;-99.276;2023-08-17T09:17:46;3.13;;;2.83;;
13832;SDS011;6987;19.472;-99.276;2023-08-17T09:22:59;3.25;;;3.05;;
13832;SDS011;6987;19.472;-99.276;2023-08-17T09:25:31;3.08;;;2.95;;
13832;SDS011;6987;19.472;-99.276;2023-08-17T09:28:05;3.10;;;2.90;;
13832;SDS011;6987;19.472;-99.276;2023-08-17T09:30:50;3.00;;;2.88;;
13832;SDS011;6987;19.472;-99.276;2023-08-17T09:33:19;2.83;;;2.63;;
13832;SDS011;6987;19.472;-99.276;2023-08-17T09:35:48;2.70;;;2.50;;
13832;SDS011;6987;19.472;-99.276;2023-08-17T09:38:17;3.10;;;2.90;;
13832;SDS011;6987;19.472;-99.276;2023-08-17T09:40:47;5.20;;;3.10;;
13832;SDS011;6987;19.472;-99.276;2023-08-17T09:43:16;3.17;;;2.78;;
13832;SDS011;6987;19.472;-99.276;2023-08-17T09:45:46;3.17;;;2.97;;
13832;SDS011;6987;19.472;-99.276;2023-08-17T09:48:19;3.22;;;2.92;;
13832;SDS011;6987;19.472;-99.276;2023-08-17T09:50:48;3.42;;;2.50;;
13832;SDS011;6987;19.472;-99.276;2023-08-17T09:53:17;3.25;;;2.72;;
13832;SDS011;6987;19.472;-99.276;2023-08-17T09:55:46;2.88;;;2.67;;
13832;SDS011;6987;19.472;-99.276;2023-08-17T09:58:16;5.18;;;2.80;;
13832;SDS011;6987;19.472;-99.276;2023-08-17T10:00:45;2.65;;;2.47;;
13832;SDS011;6987;19.472;-99.276;2023-08-17T10:03:14;2.90;;;2.70;;
13832;SDS011;6987;19.472;-99.276;2023-08-17T10:05:47;2.92;;;2.72;;
13832;SDS011;6987;19.472;-99.276;2023-08-17T10:08:17;2.95;;;2.70;;
13832;SDS011;6987;19.472;-99.276;2023-08-17T10:10:47;2.90;;;2.70;;
13832;SDS011;6987;19.472;-99.276;2023-08-17T10:13:19;2.70;;;2.60;;
13832;SDS011;6987;19.472;-99.276;2023-08-17T10:15:54;3.30;;;3.10;;
13832;SDS011;6987;19.472;-99.276;2023-08-17T10:18:26;3.33;;;3.13;;
13832;SDS011;6987;19.472;-99.276;2023-08-17T10:21:00;3.20;;;3.03;;
13832;SDS011;6987;19.472;-99.276;2023-08-17T10:23:30;3.95;;;3.45;;
13832;SDS011;6987;19.472;-99.276;2023-08-17T10:26:00;3.47;;;3.28;;
13832;SDS011;6987;19.472;-99.276;2023-08-17T10:28:30;3.75;;;3.45;;
13832;SDS011;6987;19.472;-99.276;2023-08-17T10:31:01;3.25;;;2.95;;
13832;SDS011;6987;19.472;-99.276;2023-08-17T10:33:30;3.72;;;3.42;;
13832;SDS011;6987;19.472;-99.276;2023-08-17T10:36:01;3.90;;;3.60;;
13832;SDS011;6987;19.472;-99.276;2023-08-17T10:38:30;3.78;;;3.58;;
13832;SDS011;6987;19.472;-99.276;2023-08-17T10:41:09;3.72;;;3.53;;
13832;SDS011;6987;19.472;-99.276;2023-08-17T10:43:54;3.83;;;3.47;;
13832;SDS011;6987;19.472;-99.276;2023-08-17T10:46:33;3.53;;;3.33;;
13832;SDS011;6987;19.472;-99.276;2023-08-17T10:49:06;3.97;;;3.60;;
13832;SDS011;6987;19.472;-99.276;2023-08-17T10:51:38;4.07;;;3.78;;
13832;SDS011;6987;19.472;-99.276;2023-08-17T10:54:08;3.90;;;3.60;;
13832;SDS011;6987;19.472;-99.276;2023-08-17T10:56:37;3.50;;;3.30;;
13832;SDS011;6987;19.472;-99.276;2023-08-17T10:59:12;3.58;;;3.38;;
13832;SDS011;6987;19.472;-99.276;2023-08-17T11:01:53;5.03;;;3.75;;
13832;SDS011;6987;19.472;-99.276;2023-08-17T11:04:23;3.78;;;3.47;;
13832;SDS011;6987;19.472;-99.276;2023-08-17T11:07:02;4.28;;;3.88;;
13832;SDS011;6987;19.472;-99.276;2023-08-17T11:09:31;4.05;;;3.75;;
13832;SDS011;6987;19.472;-99.276;2023-08-17T11:12:04;3.33;;;3.03;;
13832;SDS011;6987;19.472;-99.276;2023-08-17T11:14:33;3.85;;;3.65;;
13832;SDS011;6987;19.472;-99.276;2023-08-17T11:17:03;4.28;;;3.92;;
13832;SDS011;6987;19.472;-99.276;2023-08-17T11:19:32;3.75;;;3.55;;
13832;SDS011;6987;19.472;-99.276;2023-08-17T11:22:04;3.38;;;3.17;;
13832;SDS011;6987;19.472;-99.276;2023-08-17T11:24:33;4.07;;;3.78;;
13832;SDS011;6987;19.472;-99.276;2023-08-17T11:27:05;3.78;;;3.58;;
13832;SDS011;6987;19.472;-99.276;2023-08-17T11:29:35;4.28;;;4.00;;
13832;SDS011;6987;19.472;-99.276;2023-08-17T11:32:05;3.90;;;3.53;;
13832;SDS011;6987;19.472;-99.276;2023-08-17T11:34:34;4.10;;;3.80;;
13832;SDS011;6987;19.472;-99.276;2023-08-17T11:37:06;6.32;;;3.90;;
13832;SDS011;6987;19.472;-99.276;2023-08-17T11:39:35;4.18;;;3.67;;
13832;SDS011;6987;19.472;-99.276;2023-08-17T11:42:05;4.35;;;3.95;;
13832;SDS011;6987;19.472;-99.276;2023-08-17T11:44:34;4.00;;;3.70;;
13832;SDS011;6987;19.472;-99.276;2023-08-17T11:47:06;4.18;;;3.90;;
13832;SDS011;6987;19.472;-99.276;2023-08-17T11:49:36;4.95;;;4.20;;
13832;SDS011;6987;19.472;-99.276;2023-08-17T11:52:08;4.30;;;3.95;;
13832;SDS011;6987;19.472;-99.276;2023-08-17T11:54:40;6.00;;;4.20;;
13832;SDS011;6987;19.472;-99.276;2023-08-17T11:57:09;6.72;;;4.20;;
13832;SDS011;6987;19.472;-99.276;2023-08-17T11:59:38;4.05;;;3.65;;
13832;SDS011;6987;19.472;-99.276;2023-08-17T12:02:07;4.20;;;3.80;;
13832;SDS011;6987;19.472;-99.276;2023-08-17T12:04:36;5.47;;;4.10;;
13832;SDS011;6987;19.472;-99.276;2023-08-17T12:07:05;4.50;;;4.15;;
13832;SDS011;6987;19.472;-99.276;2023-08-17T12:09:35;4.18;;;3.83;;
13832;SDS011;6987;19.472;-99.276;2023-08-17T12:12:05;4.53;;;4.20;;
13832;SDS011;6987;19.472;-99.276;2023-08-17T12:14:34;3.75;;;3.55;;
13832;SDS011;6987;19.472;-99.276;2023-08-17T12:17:03;4.28;;;3.90;;
13832;SDS011;6987;19.472;-99.276;2023-08-17T12:19:32;4.43;;;4.03;;
13832;SDS011;6987;19.472;-99.276;2023-08-17T12:22:02;5.30;;;3.65;;
13832;SDS011;6987;19.472;-99.276;2023-08-17T12:24:30;4.63;;;4.22;;
13832;SDS011;6987;19.472;-99.276;2023-08-17T12:27:03;4.40;;;3.90;;
13832;SDS011;6987;19.472;-99.276;2023-08-17T12:29:32;4.53;;;4.15;;
13832;SDS011;6987;19.472;-99.276;2023-08-17T12:32:01;4.22;;;3.92;;
13832;SDS011;6987;19.472;-99.276;2023-08-17T12:34:30;3.90;;;3.60;;
13832;SDS011;6987;19.472;-99.276;2023-08-17T12:37:00;5.35;;;4.80;;
13832;SDS011;6987;19.472;-99.276;2023-08-17T12:39:29;4.10;;;3.80;;
13832;SDS011;6987;19.472;-99.276;2023-08-17T12:41:58;4.60;;;4.20;;
13832;SDS011;6987;19.472;-99.276;2023-08-17T12:44:29;4.43;;;4.00;;
13832;SDS011;6987;19.472;-99.276;2023-08-17T12:46:58;4.30;;;3.90;;
13832;SDS011;6987;19.472;-99.276;2023-08-17T12:49:27;4.43;;;4.03;;
13832;SDS011;6987;19.472;-99.276;2023-08-17T12:51:56;6.07;;;3.45;;
13832;SDS011;6987;19.472;-99.276;2023-08-17T12:54:26;4.22;;;3.92;;
13832;SDS011;6987;19.472;-99.276;2023-08-17T12:56:56;4.25;;;3.95;;
13832;SDS011;6987;19.472;-99.276;2023-08-17T12:59:25;4.30;;;3.90;;
13832;SDS011;6987;19.472;-99.276;2023-08-17T13:01:56;4.30;;;3.95;;
13832;SDS011;6987;19.472;-99.276;2023-08-17T13:04:25;4.60;;;4.15;;
13832;SDS011;6987;19.472;-99.276;2023-08-17T13:06:54;4.93;;;4.53;;
13832;SDS011;6987;19.472;-99.276;2023-08-17T13:09:24;5.30;;;4.80;;
13832;SDS011;6987;19.472;-99.276;2023-08-17T13:11:53;6.25;;;4.53;;
13832;SDS011;6987;19.472;-99.276;2023-08-17T13:14:23;4.85;;;4.45;;
13832;SDS011;6987;19.472;-99.276;2023-08-17T13:16:52;8.02;;;4.85;;
13832;SDS011;6987;19.472;-99.276;2023-08-17T13:19:23;4.65;;;4.28;;
13832;SDS011;6987;19.472;-99.276;2023-08-17T13:21:52;4.75;;;4.45;;
13832;SDS011;6987;19.472;-99.276;2023-08-17T13:24:21;4.78;;;4.38;;
13832;SDS011;6987;19.472;-99.276;2023-08-17T13:26:50;5.13;;;4.70;;
13832;SDS011;6987;19.472;-99.276;2023-08-17T13:29:20;4.85;;;4.55;;
13832;SDS011;6987;19.472;-99.276;2023-08-17T13:31:49;4.53;;;4.22;;
13832;SDS011;6987;19.472;-99.276;2023-08-17T13:34:18;5.80;;;5.22;;
13832;SDS011;6987;19.472;-99.276;2023-08-17T13:36:49;5.40;;;4.90;;
13832;SDS011;6987;19.472;-99.276;2023-08-17T13:39:18;5.47;;;5.03;;
13832;SDS011;6987;19.472;-99.276;2023-08-17T13:41:48;4.90;;;4.50;;
13832;SDS011;6987;19.472;-99.276;2023-08-17T13:44:17;4.95;;;4.40;;
13832;SDS011;6987;19.472;-99.276;2023-08-17T13:46:46;5.10;;;4.70;;
13832;SDS011;6987;19.472;-99.276;2023-08-17T13:49:15;5.53;;;4.95;;
13832;SDS011;6987;19.472;-99.276;2023-08-17T13:51:44;5.15;;;4.82;;
13832;SDS011;6987;19.472;-99.276;2023-08-17T13:54:16;5.47;;;5.07;;
13832;SDS011;6987;19.472;-99.276;2023-08-17T13:56:45;5.88;;;5.38;;
13832;SDS011;6987;19.472;-99.276;2023-08-17T13:59:14;5.82;;;5.32;;
13832;SDS011;6987;19.472;-99.276;2023-08-17T14:01:43;5.80;;;5.30;;
13832;SDS011;6987;19.472;-99.276;2023-08-17T14:04:13;5.70;;;5.30;;
13832;SDS011;6987;19.472;-99.276;2023-08-17T14:06:43;6.18;;;5.57;;
13832;SDS011;6987;19.472;-99.276;2023-08-17T14:09:12;5.97;;;5.57;;
13832;SDS011;6987;19.472;-99.276;2023-08-17T14:11:43;5.95;;;5.53;;
13832;SDS011;6987;19.472;-99.276;2023-08-17T14:14:12;6.97;;;6.30;;
13832;SDS011;6987;19.472;-99.276;2023-08-17T14:16:41;7.70;;;6.82;;
13832;SDS011;6987;19.472;-99.276;2023-08-17T14:19:11;9.38;;;7.78;;
13832;SDS011;6987;19.472;-99.276;2023-08-17T14:21:40;8.23;;;7.47;;
13832;SDS011;6987;19.472;-99.276;2023-08-17T14:24:08;7.68;;;6.97;;
13832;SDS011;6987;19.472;-99.276;2023-08-17T14:26:38;8.30;;;7.50;;
13832;SDS011;6987;19.472;-99.276;2023-08-17T14:29:09;8.30;;;7.43;;
13832;SDS011;6987;19.472;-99.276;2023-08-17T14:31:39;8.45;;;7.35;;
13832;SDS011;6987;19.472;-99.276;2023-08-17T14:34:08;7.82;;;7.07;;
13832;SDS011;6987;19.472;-99.276;2023-08-17T14:36:37;8.68;;;7.25;;
13832;SDS011;6987;19.472;-99.276;2023-08-17T14:39:06;7.35;;;6.65;;
13832;SDS011;6987;19.472;-99.276;2023-08-17T14:41:35;7.75;;;6.93;;
13832;SDS011;6987;19.472;-99.276;2023-08-17T14:44:04;7.15;;;6.45;;
13832;SDS011;6987;19.472;-99.276;2023-08-17T14:46:35;7.47;;;6.78;;
13832;SDS011;6987;19.472;-99.276;2023-08-17T14:49:05;7.18;;;6.47;;
13832;SDS011;6987;19.472;-99.276;2023-08-17T14:51:37;6.90;;;6.20;;